Airfield :
LOGIN :

Register | Disclaimer

   EN    FR    IT 

 










Legend :    VFR   Marginal VFR   IFR   Intensive IFR   Very Intensive IFR
Visi :
Ceiling :
>= 8 km
>= 3000ft
5 to 8 km
1000 to 3000 ft
1500m to 5 km
500 to 1000 ft
800 to 1500m
200 to 500 ft
< 800m
< 200 ft
Symbols :   Thunderstorms  Fog  Heavy snow  Heavy precipitations  Wind > 20 kt
SIGMETs :     Misc.  Thunderstorms  Icing  Turbulence  Mountain Waves  Volcanic Ashes






- Airport Elevation : 464 ft
- IATA code : EVX


LFOE - Evreux

CURRENT METAR :
  • 301330Z AUTO VRB03KT 9999 ////// 05/04 Q1024

EXPIRED METARs :
  • 301300Z AUTO 10005KT 060V130 9999 ////// 05/04 Q1024
  • 301230Z AUTO /////KT 9999 ////// 05/04 Q1024
  • 301200Z AUTO /////KT 9999 ////// 05/04 Q1024
  • 301130Z AUTO /////KT 9999 ////// 05/04 Q1024
  • 301100Z AUTO /////KT 9999 ////// 05/04 Q1024

TAF AMD TAF LFOE
Valid from the 30 at 11:00 until the 01 at 09:00 UTC


301107Z 3011/0109 08005KT 9999 OVC009
BECMG 3012/3014 BKN020
BECMG 3018/3020 BKN009
TEMPO 0103/0106 BKN004
BECMG 0106/0108 BKN015



MET'MAP, your aeronautical weather chart ! - Copyright ORBIFLY December 2007 - Disclaimer

ORBIFLY MET'MAP TEAM :

Programming & Development : Alexandra Zaïnal
Original concept : Baudouin d'Aumeries
Technical & hardware support : Manuel Goepfert
Assistance : Marc-Olivier Méhu




SOURCES & CREDITS :

   NOAA